Time;durP1;ratioP1;P1;durP2;ratioP2;P2;SDS_P1;SDS_P2;PMS_P1;PMS_P2;Temp;Humidity;BMP_temperature;BMP_pressure;BME280_temperature;BME280_humidity;BME280_pressure;Samples;Min_cycle;Max_cycle;Signal;HPM_P1;HPM_P2
2022/10/15 00:00:05;;;;;;;88.77;47.20;;;;;;;;;;5073796;28;20474;-69
2022/10/15 00:02:32;;;;;;;73.80;43.87;;;;;;;;;;5091648;28;20870;-69
2022/10/15 00:04:58;;;;;;;92.40;46.20;;;;;;;;;;5091791;28;20200;-70
2022/10/15 00:07:26;;;;;;;88.60;47.33;;;;;;;;;;5090254;28;20446;-70
2022/10/15 00:09:53;;;;;;;81.57;44.57;;;;;;;;;;5070235;28;20190;-69
2022/10/15 00:12:19;;;;;;;81.00;44.10;;;;;;;;;;5071900;28;20421;-69
2022/10/15 00:14:46;;;;;;;76.33;42.87;;;;;;;;;;5071178;28;20197;-70
2022/10/15 00:17:12;;;;;;;79.53;47.10;;;;;;;;;;5071570;28;20432;-69
2022/10/15 00:19:39;;;;;;;82.73;46.93;;;;;;;;;;5053589;28;20465;-69
2022/10/15 00:22:05;;;;;;;90.73;46.90;;;;;;;;;;5070635;28;20995;-69
2022/10/15 00:24:32;;;;;;;82.23;46.00;;;;;;;;;;5070347;28;20421;-69
2022/10/15 00:26:58;;;;;;;83.97;46.07;;;;;;;;;;5071417;28;20190;-69
2022/10/15 00:29:25;;;;;;;74.00;43.63;;;;;;;;;;5086769;28;20512;-69
2022/10/15 00:31:53;;;;;;;72.27;43.63;;;;;;;;;;5091370;28;20423;-69
2022/10/15 00:34:20;;;;;;;84.43;44.80;;;;;;;;;;5091426;28;20530;-69
2022/10/15 00:36:48;;;;;;;78.43;44.83;;;;;;;;;;5090462;28;20237;-70
2022/10/15 00:39:14;;;;;;;75.83;43.53;;;;;;;;;;5073645;28;20676;-69
2022/10/15 00:41:41;;;;;;;69.07;41.47;;;;;;;;;;5073067;28;20189;-69
2022/10/15 00:44:20;;;;;;;66.57;39.60;;;;;;;;;;5081437;28;20202;-69
2022/10/15 00:46:48;;;;;;;68.37;40.00;;;;;;;;;;5069507;28;20432;-69
2022/10/15 00:49:18;;;;;;;64.40;39.23;;;;;;;;;;5069653;28;20196;-69
2022/10/15 00:51:49;;;;;;;60.33;37.63;;;;;;;;;;5070077;28;20190;-69
2022/10/15 00:54:16;;;;;;;60.70;36.53;;;;;;;;;;5070033;28;20788;-69
2022/10/15 00:56:42;;;;;;;56.53;35.80;;;;;;;;;;5069384;28;20194;-69
2022/10/15 00:59:09;;;;;;;57.70;35.97;;;;;;;;;;5069309;28;20298;-69
2022/10/15 01:01:35;;;;;;;58.33;35.87;;;;;;;;;;5052513;28;20186;-70
2022/10/15 01:04:02;;;;;;;55.43;34.90;;;;;;;;;;5052795;28;20811;-70
2022/10/15 01:06:29;;;;;;;58.70;35.80;;;;;;;;;;5052717;28;20675;-70
2022/10/15 01:08:56;;;;;;;53.13;35.60;;;;;;;;;;5069303;28;20550;-70
2022/10/15 01:11:41;;;;;;;63.63;37.77;;;;;;;;;;5052537;28;20442;-69
2022/10/15 01:14:31;;;;;;;61.43;37.27;;;;;;;;;;5070076;28;20592;-69
2022/10/15 01:17:03;;;;;;;53.03;33.87;;;;;;;;;;5068585;28;20691;-69
2022/10/15 01:19:30;;;;;;;52.00;34.10;;;;;;;;;;5051962;28;20480;-69
2022/10/15 01:22:00;;;;;;;57.67;35.50;;;;;;;;;;5069418;28;20565;-69
2022/10/15 01:24:30;;;;;;;58.73;37.17;;;;;;;;;;5070183;28;20428;-70
2022/10/15 01:26:59;;;;;;;55.17;35.80;;;;;;;;;;5069879;28;20243;-70
2022/10/15 01:29:44;;;;;;;62.00;37.10;;;;;;;;;;5069365;28;20617;-69
2022/10/15 01:32:11;;;;;;;59.27;36.40;;;;;;;;;;5069930;28;20178;-70
2022/10/15 01:34:43;;;;;;;56.77;37.17;;;;;;;;;;5076526;28;20667;-70
2022/10/15 01:37:12;;;;;;;59.47;36.20;;;;;;;;;;5088387;28;20217;-70
2022/10/15 01:39:40;;;;;;;60.27;37.57;;;;;;;;;;5072305;28;20221;-70
2022/10/15 01:42:12;;;;;;;59.77;38.97;;;;;;;;;;5055328;28;20534;-70
2022/10/15 01:44:40;;;;;;;61.83;37.87;;;;;;;;;;5055351;28;20197;-69
2022/10/15 01:47:23;;;;;;;53.37;35.53;;;;;;;;;;5071767;28;20201;-70
2022/10/15 01:49:50;;;;;;;58.57;37.33;;;;;;;;;;5071612;28;20203;-70
2022/10/15 01:52:17;;;;;;;54.20;35.17;;;;;;;;;;5054744;28;20286;-70
2022/10/15 01:54:44;;;;;;;50.93;33.63;;;;;;;;;;5051743;28;20186;-70
2022/10/15 01:57:11;;;;;;;56.70;36.27;;;;;;;;;;5034870;28;20232;-70
2022/10/15 01:59:38;;;;;;;55.73;34.17;;;;;;;;;;5034987;28;20206;-70
2022/10/15 02:02:05;;;;;;;51.67;35.07;;;;;;;;;;5051365;28;20339;-70
2022/10/15 02:04:31;;;;;;;55.67;34.17;;;;;;;;;;5051615;28;20292;-70
2022/10/15 02:07:00;;;;;;;50.77;33.37;;;;;;;;;;5068044;28;20206;-70
2022/10/15 02:09:45;;;;;;;51.50;32.80;;;;;;;;;;5035016;28;20225;-70
2022/10/15 02:12:31;;;;;;;49.73;32.77;;;;;;;;;;5068440;28;20189;-70
2022/10/15 02:15:20;;;;;;;50.43;33.70;;;;;;;;;;5067691;28;20717;-70
2022/10/15 02:17:50;;;;;;;49.47;32.50;;;;;;;;;;5051244;28;20186;-70
2022/10/15 02:20:21;;;;;;;48.70;32.07;;;;;;;;;;5051129;28;20242;-70
2022/10/15 02:22:51;;;;;;;45.60;30.17;;;;;;;;;;5050192;28;20260;-70
2022/10/15 02:25:19;;;;;;;43.67;29.50;;;;;;;;;;5051606;28;20186;-70
2022/10/15 02:27:46;;;;;;;48.40;30.67;;;;;;;;;;5051185;28;20197;-70
2022/10/15 02:30:14;;;;;;;47.73;30.40;;;;;;;;;;5035413;28;20822;-70
2022/10/15 02:32:40;;;;;;;47.33;31.20;;;;;;;;;;5051410;28;20645;-70
2022/10/15 02:35:07;;;;;;;45.87;31.53;;;;;;;;;;5034358;28;20665;-70
2022/10/15 02:37:37;;;;;;;45.50;31.40;;;;;;;;;;5034957;28;20234;-70
2022/10/15 02:40:06;;;;;;;44.07;30.63;;;;;;;;;;5043671;28;20572;-70
2022/10/15 02:42:33;;;;;;;45.20;28.80;;;;;;;;;;5034753;28;20210;-70
2022/10/15 02:44:59;;;;;;;44.00;29.63;;;;;;;;;;5069095;28;20265;-70
2022/10/15 02:47:26;;;;;;;50.20;31.90;;;;;;;;;;5068952;28;20190;-70
2022/10/15 02:49:52;;;;;;;46.20;30.00;;;;;;;;;;5051270;28;20655;-70
2022/10/15 02:52:19;;;;;;;51.47;30.03;;;;;;;;;;5067378;28;20243;-70
2022/10/15 02:54:46;;;;;;;44.70;29.33;;;;;;;;;;5050703;28;20202;-70
2022/10/15 02:57:13;;;;;;;43.53;29.10;;;;;;;;;;5077339;28;20196;-70
2022/10/15 02:59:42;;;;;;;45.90;30.03;;;;;;;;;;5070914;28;20244;-70
2022/10/15 03:02:08;;;;;;;39.37;27.10;;;;;;;;;;5070667;28;20268;-70
2022/10/15 03:04:39;;;;;;;46.60;30.63;;;;;;;;;;5054891;28;20284;-70
2022/10/15 03:07:05;;;;;;;43.83;29.23;;;;;;;;;;5087212;28;20197;-70
2022/10/15 03:09:32;;;;;;;42.63;28.77;;;;;;;;;;5091356;28;20189;-70
2022/10/15 03:12:01;;;;;;;47.40;30.00;;;;;;;;;;5075061;28;20722;-70
2022/10/15 03:14:29;;;;;;;46.17;29.33;;;;;;;;;;5074668;28;20268;-70
2022/10/15 03:16:59;;;;;;;40.67;27.67;;;;;;;;;;5058441;28;20193;-70
2022/10/15 03:19:26;;;;;;;40.27;26.50;;;;;;;;;;5057718;28;20197;-70
2022/10/15 03:21:53;;;;;;;42.87;27.40;;;;;;;;;;5091183;28;20197;-70
2022/10/15 03:24:20;;;;;;;43.50;28.97;;;;;;;;;;5091889;28;20292;-70
2022/10/15 03:26:46;;;;;;;43.63;28.33;;;;;;;;;;5090963;28;20205;-70
2022/10/15 03:29:13;;;;;;;44.50;27.90;;;;;;;;;;5088500;28;20213;-70
2022/10/15 03:31:45;;;;;;;44.50;27.13;;;;;;;;;;5053853;28;20198;-70
2022/10/15 03:34:12;;;;;;;43.60;27.57;;;;;;;;;;5054554;28;20193;-70
2022/10/15 03:36:39;;;;;;;39.23;24.83;;;;;;;;;;5070754;28;20260;-70
2022/10/15 03:39:09;;;;;;;39.87;25.60;;;;;;;;;;5057579;28;20193;-70
2022/10/15 03:41:36;;;;;;;39.83;25.33;;;;;;;;;;5092192;28;20232;-70
2022/10/15 03:44:04;;;;;;;39.70;26.17;;;;;;;;;;5074553;28;20247;-70
2022/10/15 03:46:33;;;;;;;46.30;28.30;;;;;;;;;;5069348;28;20309;-70
2022/10/15 03:49:01;;;;;;;37.33;25.20;;;;;;;;;;5054553;28;20552;-70
2022/10/15 03:51:28;;;;;;;43.07;25.37;;;;;;;;;;5070440;28;20216;-69
2022/10/15 03:54:04;;;;;;;44.87;27.07;;;;;;;;;;5055412;28;20198;-70
2022/10/15 03:56:37;;;;;;;54.97;29.97;;;;;;;;;;5070377;28;20198;-69
2022/10/15 03:59:30;;;;;;;51.57;29.40;;;;;;;;;;5067463;28;20214;-69
2022/10/15 04:02:00;;;;;;;74.90;32.13;;;;;;;;;;5065819;28;20281;-70
2022/10/15 04:04:27;;;;;;;56.37;31.23;;;;;;;;;;5053302;28;20222;-70
2022/10/15 04:06:54;;;;;;;51.57;30.77;;;;;;;;;;5056152;28;20284;-70
2022/10/15 04:09:22;;;;;;;140.63;31.90;;;;;;;;;;5072682;28;20687;-70
2022/10/15 04:11:48;;;;;;;56.00;32.63;;;;;;;;;;5056508;28;20726;-69
2022/10/15 04:14:16;;;;;;;50.30;30.80;;;;;;;;;;5088853;28;20197;-70
2022/10/15 04:16:42;;;;;;;52.97;31.27;;;;;;;;;;5090113;28;20185;-70
2022/10/15 04:19:14;;;;;;;65.47;32.47;;;;;;;;;;5071798;28;20205;-70
2022/10/15 04:21:44;;;;;;;57.50;31.40;;;;;;;;;;5051464;28;20225;-70
2022/10/15 04:24:24;;;;;;;63.63;32.00;;;;;;;;;;5063043;28;20194;-70
2022/10/15 04:26:50;;;;;;;74.10;30.30;;;;;;;;;;5056745;28;20193;-70
2022/10/15 04:29:17;;;;;;;75.50;31.47;;;;;;;;;;5088799;28;20217;-70
2022/10/15 04:31:44;;;;;;;53.30;27.73;;;;;;;;;;5091425;28;20181;-69
2022/10/15 04:34:10;;;;;;;48.00;27.60;;;;;;;;;;5070923;28;20208;-70
2022/10/15 04:36:37;;;;;;;50.90;28.53;;;;;;;;;;5072910;28;20228;-70
2022/10/15 04:39:10;;;;;;;46.40;29.67;;;;;;;;;;5088567;28;20653;-69
2022/10/15 04:41:41;;;;;;;46.53;28.20;;;;;;;;;;5068406;28;20214;-69
2022/10/15 04:44:11;;;;;;;46.73;28.07;;;;;;;;;;5069262;28;20283;-70
2022/10/15 04:46:40;;;;;;;47.47;28.60;;;;;;;;;;5071619;28;20194;-70
2022/10/15 04:49:45;;;;;;;43.33;28.27;;;;;;;;;;5007963;28;20208;-69
2022/10/15 04:52:41;;;;;;;42.50;26.97;;;;;;;;;;4956397;28;20214;-69
2022/10/15 04:55:10;;;;;;;43.40;26.73;;;;;;;;;;5045712;28;20206;-70
2022/10/15 04:57:37;;;;;;;40.83;26.73;;;;;;;;;;5088044;28;20189;-69
2022/10/15 05:00:04;;;;;;;41.77;26.20;;;;;;;;;;5087757;28;20247;-69
2022/10/15 05:02:31;;;;;;;36.73;24.70;;;;;;;;;;5089718;28;20490;-69
2022/10/15 05:05:17;;;;;;;36.70;24.83;;;;;;;;;;5089866;28;20216;-69
2022/10/15 05:07:52;;;;;;;47.60;25.93;;;;;;;;;;5068093;28;20197;-69
2022/10/15 05:10:18;;;;;;;35.17;23.40;;;;;;;;;;5069138;28;20190;-69
2022/10/15 05:12:47;;;;;;;51.47;30.87;;;;;;;;;;5061597;28;20260;-69
2022/10/15 05:15:27;;;;;;;54.57;31.77;;;;;;;;;;5058620;28;20251;-69
2022/10/15 05:17:55;;;;;;;60.43;33.40;;;;;;;;;;5057060;28;20204;-69
2022/10/15 05:20:26;;;;;;;70.83;37.63;;;;;;;;;;5088639;28;20260;-70
2022/10/15 05:22:53;;;;;;;58.43;34.33;;;;;;;;;;5090523;28;20182;-69
2022/10/15 05:25:21;;;;;;;61.10;36.13;;;;;;;;;;5088046;28;20212;-69
2022/10/15 05:27:48;;;;;;;63.10;37.30;;;;;;;;;;5086745;28;20190;-69
2022/10/15 05:30:15;;;;;;;63.20;35.97;;;;;;;;;;5068746;28;20185;-70
2022/10/15 05:32:52;;;;;;;57.00;34.77;;;;;;;;;;5089815;28;20243;-69
2022/10/15 05:35:20;;;;;;;67.07;38.83;;;;;;;;;;5053424;28;20729;-70
2022/10/15 05:37:52;;;;;;;69.60;39.03;;;;;;;;;;5056441;28;20236;-70
2022/10/15 05:40:19;;;;;;;70.20;40.37;;;;;;;;;;5068962;28;20261;-70
2022/10/15 05:43:07;;;;;;;70.93;40.80;;;;;;;;;;5069777;28;20201;-70
2022/10/15 05:45:34;;;;;;;75.03;40.73;;;;;;;;;;5072134;28;20553;-70
2022/10/15 05:48:03;;;;;;;64.03;36.63;;;;;;;;;;5088260;28;20205;-70
2022/10/15 05:50:30;;;;;;;63.73;37.20;;;;;;;;;;5055290;28;20197;-70
2022/10/15 05:52:57;;;;;;;75.27;43.70;;;;;;;;;;5055856;28;20705;-70
2022/10/15 05:55:53;;;;;;;72.73;41.33;;;;;;;;;;5073851;28;20212;-70
2022/10/15 05:58:25;;;;;;;72.20;42.93;;;;;;;;;;5069637;28;20557;-70
2022/10/15 06:00:52;;;;;;;68.13;39.03;;;;;;;;;;5062278;28;20611;-70
2022/10/15 06:03:18;;;;;;;71.50;40.80;;;;;;;;;;5087589;28;20200;-70
2022/10/15 06:05:45;;;;;;;66.23;39.67;;;;;;;;;;5070184;28;20363;-71
2022/10/15 06:08:11;;;;;;;80.77;43.50;;;;;;;;;;5089479;28;20185;-70
2022/10/15 06:10:38;;;;;;;69.17;39.20;;;;;;;;;;5086348;28;20193;-70
2022/10/15 06:13:06;;;;;;;68.87;40.53;;;;;;;;;;5065994;28;20716;-70
2022/10/15 06:15:33;;;;;;;68.50;40.37;;;;;;;;;;5072189;28;20967;-70
2022/10/15 06:18:00;;;;;;;69.23;40.27;;;;;;;;;;5071851;28;20197;-70
2022/10/15 06:20:27;;;;;;;66.13;39.63;;;;;;;;;;5087166;28;20270;-70
2022/10/15 06:22:57;;;;;;;70.57;40.40;;;;;;;;;;5071405;28;20657;-70
2022/10/15 06:25:24;;;;;;;68.50;40.77;;;;;;;;;;5071801;28;20708;-70
2022/10/15 06:27:50;;;;;;;68.30;39.70;;;;;;;;;;5064088;28;20236;-70
2022/10/15 06:30:17;;;;;;;65.13;39.27;;;;;;;;;;5069533;28;20198;-70
2022/10/15 06:32:50;;;;;;;68.40;41.67;;;;;;;;;;5074056;28;20765;-70
2022/10/15 06:35:17;;;;;;;75.80;42.30;;;;;;;;;;5054890;28;20195;-70
2022/10/15 06:37:43;;;;;;;68.60;39.20;;;;;;;;;;5071430;28;20228;-70
2022/10/15 06:40:10;;;;;;;62.67;38.87;;;;;;;;;;5089166;28;20238;-70
2022/10/15 06:42:40;;;;;;;66.87;40.90;;;;;;;;;;5056425;28;20299;-70
2022/10/15 06:45:08;;;;;;;66.50;40.27;;;;;;;;;;5069599;28;20185;-71
2022/10/15 06:47:35;;;;;;;64.37;38.57;;;;;;;;;;5095180;28;20180;-70
2022/10/15 06:50:05;;;;;;;69.47;40.00;;;;;;;;;;5078088;28;20267;-70
2022/10/15 06:52:32;;;;;;;74.57;42.60;;;;;;;;;;5109058;28;20705;-70
2022/10/15 06:54:59;;;;;;;73.97;43.30;;;;;;;;;;5064849;28;20271;-71
2022/10/15 06:57:26;;;;;;;80.60;45.80;;;;;;;;;;5088850;28;20190;-70
2022/10/15 06:59:53;;;;;;;75.40;45.60;;;;;;;;;;5075274;28;20583;-70
2022/10/15 07:02:20;;;;;;;77.90;47.77;;;;;;;;;;5052927;28;20221;-71
2022/10/15 07:04:46;;;;;;;71.30;44.37;;;;;;;;;;5063007;28;20272;-71
2022/10/15 07:07:16;;;;;;;62.80;41.07;;;;;;;;;;5071873;28;20243;-71
2022/10/15 07:09:43;;;;;;;56.20;38.63;;;;;;;;;;5074744;28;20193;-71
2022/10/15 07:12:09;;;;;;;56.90;38.37;;;;;;;;;;5087281;28;20202;-72
2022/10/15 07:14:36;;;;;;;58.87;39.00;;;;;;;;;;5052346;28;20755;-72
2022/10/15 07:17:10;;;;;;;63.40;41.50;;;;;;;;;;5085163;28;20193;-72
2022/10/15 07:19:37;;;;;;;57.30;38.27;;;;;;;;;;5085831;28;20189;-72
2022/10/15 07:22:04;;;;;;;54.43;36.83;;;;;;;;;;5069474;28;20224;-72
2022/10/15 07:24:30;;;;;;;55.37;37.23;;;;;;;;;;5084019;28;20194;-72
2022/10/15 07:26:57;;;;;;;49.70;35.07;;;;;;;;;;5086545;28;20720;-72
2022/10/15 07:29:33;;;;;;;52.63;35.60;;;;;;;;;;5085126;28;20242;-72
2022/10/15 07:32:00;;;;;;;51.30;36.37;;;;;;;;;;5085884;28;20275;-72
2022/10/15 07:34:27;;;;;;;49.00;33.30;;;;;;;;;;5084828;28;20661;-72
2022/10/15 07:36:53;;;;;;;50.37;34.90;;;;;;;;;;5079374;28;20312;-72
2022/10/15 07:39:21;;;;;;;47.53;33.80;;;;;;;;;;5064623;28;20186;-72
2022/10/15 07:41:47;;;;;;;46.97;32.90;;;;;;;;;;5064628;28;20213;-73
2022/10/15 07:44:14;;;;;;;46.67;32.63;;;;;;;;;;5064023;28;20208;-73
2022/10/15 07:46:40;;;;;;;48.57;32.87;;;;;;;;;;5065298;28;20186;-69
2022/10/15 07:49:08;;;;;;;47.83;31.67;;;;;;;;;;5047801;28;20205;-72
2022/10/15 07:51:34;;;;;;;47.53;32.00;;;;;;;;;;5047593;28;20208;-72
2022/10/15 07:54:04;;;;;;;43.80;30.17;;;;;;;;;;5063308;28;20317;-72
2022/10/15 07:56:31;;;;;;;45.60;31.57;;;;;;;;;;5064128;28;20300;-75
2022/10/15 07:58:57;;;;;;;47.07;31.43;;;;;;;;;;5064407;28;20322;-73
2022/10/15 08:01:25;;;;;;;46.07;31.83;;;;;;;;;;5048421;28;20795;-73
2022/10/15 08:03:54;;;;;;;46.20;30.40;;;;;;;;;;5068494;28;20665;-72
2022/10/15 08:06:24;;;;;;;44.47;30.33;;;;;;;;;;5052257;28;20600;-72
2022/10/15 08:08:52;;;;;;;44.50;30.17;;;;;;;;;;5064198;28;20595;-70
2022/10/15 08:11:20;;;;;;;44.67;30.27;;;;;;;;;;5085318;28;20226;-71
2022/10/15 08:13:48;;;;;;;43.37;29.87;;;;;;;;;;5084915;28;20284;-71
2022/10/15 08:16:15;;;;;;;42.90;29.57;;;;;;;;;;5065525;28;20635;-71
2022/10/15 08:18:45;;;;;;;45.60;29.27;;;;;;;;;;5078481;28;20196;-71
2022/10/15 08:21:13;;;;;;;41.13;29.53;;;;;;;;;;5086715;28;20676;-71
2022/10/15 08:23:39;;;;;;;39.03;28.33;;;;;;;;;;5076437;28;20273;-71
2022/10/15 08:26:09;;;;;;;39.17;26.60;;;;;;;;;;5084408;28;20185;-71
2022/10/15 08:28:36;;;;;;;37.03;27.47;;;;;;;;;;5062212;28;20248;-71
2022/10/15 08:31:04;;;;;;;38.50;26.60;;;;;;;;;;5064884;28;20178;-71
2022/10/15 08:33:32;;;;;;;38.00;26.13;;;;;;;;;;5057811;28;20589;-73
2022/10/15 08:35:59;;;;;;;37.77;25.87;;;;;;;;;;5033467;28;20253;-71
2022/10/15 08:38:26;;;;;;;35.80;26.30;;;;;;;;;;5019442;28;1299879;-69
2022/10/15 08:40:54;;;;;;;35.40;25.60;;;;;;;;;;5070040;28;20682;-69
2022/10/15 08:43:22;;;;;;;35.23;25.50;;;;;;;;;;5083868;28;20289;-70
2022/10/15 08:45:49;;;;;;;48.07;26.03;;;;;;;;;;5069337;28;20192;-70
2022/10/15 08:48:48;;;;;;;34.30;26.20;;;;;;;;;;5074840;28;20656;-69
2022/10/15 08:51:24;;;;;;;34.57;25.83;;;;;;;;;;5056020;28;20293;-69
2022/10/15 08:53:52;;;;;;;35.63;25.57;;;;;;;;;;5068916;28;20188;-70
2022/10/15 08:56:21;;;;;;;35.23;24.77;;;;;;;;;;5075075;28;20177;-69
2022/10/15 08:58:50;;;;;;;35.53;24.97;;;;;;;;;;5072306;28;20222;-70
2022/10/15 09:01:20;;;;;;;35.87;25.20;;;;;;;;;;5078057;28;20208;-69
2022/10/15 09:03:56;;;;;;;36.97;24.37;;;;;;;;;;5086210;28;20197;-70
2022/10/15 09:06:25;;;;;;;37.37;25.50;;;;;;;;;;5061300;28;21036;-69
2022/10/15 09:09:13;;;;;;;36.00;25.03;;;;;;;;;;5090373;28;20611;-69
2022/10/15 09:11:46;;;;;;;42.33;26.53;;;;;;;;;;5068936;28;20198;-69
2022/10/15 09:14:15;;;;;;;36.90;25.53;;;;;;;;;;5072481;28;20667;-69
2022/10/15 09:16:43;;;;;;;36.27;25.90;;;;;;;;;;5063441;28;20927;-70
2022/10/15 09:19:15;;;;;;;40.50;26.60;;;;;;;;;;5064069;28;20197;-69
2022/10/15 09:21:42;;;;;;;39.83;26.60;;;;;;;;;;5072239;28;20205;-69
2022/10/15 09:24:09;;;;;;;41.60;27.93;;;;;;;;;;5071886;28;20739;-69
2022/10/15 09:26:55;;;;;;;37.10;25.50;;;;;;;;;;5072597;28;20194;-68
2022/10/15 09:29:24;;;;;;;39.33;26.27;;;;;;;;;;5089855;28;20698;-68
2022/10/15 09:31:57;;;;;;;35.40;25.90;;;;;;;;;;5055483;28;20782;-69
2022/10/15 09:34:31;;;;;;;38.90;26.17;;;;;;;;;;5071663;28;20197;-69
2022/10/15 09:36:58;;;;;;;41.40;26.10;;;;;;;;;;5089620;28;20217;-69
2022/10/15 09:39:25;;;;;;;35.60;26.47;;;;;;;;;;5055391;28;20194;-69
2022/10/15 09:42:05;;;;;;;38.70;26.43;;;;;;;;;;5089866;28;20209;-69
2022/10/15 09:44:36;;;;;;;42.30;27.00;;;;;;;;;;5089267;28;20235;-69
2022/10/15 09:47:24;;;;;;;33.60;24.23;;;;;;;;;;5089333;28;20201;-68
2022/10/15 09:49:58;;;;;;;31.00;22.00;;;;;;;;;;5089625;28;20189;-69
2022/10/15 09:52:44;;;;;;;33.97;22.97;;;;;;;;;;5058566;28;20197;-70
2022/10/15 09:55:22;;;;;;;32.63;21.67;;;;;;;;;;5089396;28;20189;-70
2022/10/15 09:57:50;;;;;;;30.17;20.73;;;;;;;;;;5088996;28;20185;-70
2022/10/15 10:00:18;;;;;;;28.90;20.20;;;;;;;;;;5068926;28;20257;-70
2022/10/15 10:02:49;;;;;;;26.70;18.70;;;;;;;;;;5073124;28;20212;-70
2022/10/15 10:05:42;;;;;;;27.03;19.27;;;;;;;;;;5059670;28;20228;-70
2022/10/15 10:08:09;;;;;;;30.97;19.17;;;;;;;;;;5065938;28;20296;-70
2022/10/15 10:10:39;;;;;;;28.17;19.70;;;;;;;;;;5068263;28;20247;-70
2022/10/15 10:13:22;;;;;;;29.53;19.93;;;;;;;;;;5070232;28;20219;-71
2022/10/15 10:15:50;;;;;;;27.47;19.30;;;;;;;;;;5088011;28;20262;-71
2022/10/15 10:18:25;;;;;;;29.73;19.40;;;;;;;;;;5072411;28;20188;-71
2022/10/15 10:21:00;;;;;;;27.77;20.07;;;;;;;;;;5087768;28;20193;-70
2022/10/15 10:23:34;;;;;;;27.73;20.60;;;;;;;;;;5066522;28;20206;-70
2022/10/15 10:26:08;;;;;;;31.10;20.63;;;;;;;;;;5061633;28;20256;-72
2022/10/15 10:28:44;;;;;;;27.70;21.77;;;;;;;;;;5055587;28;20197;-76
2022/10/15 10:31:14;;;;;;;32.33;22.47;;;;;;;;;;5033672;28;20193;-76
2022/10/15 10:33:49;;;;;;;32.17;22.80;;;;;;;;;;5034564;28;20721;-77
2022/10/15 10:36:19;;;;;;;36.70;23.20;;;;;;;;;;5042830;28;20273;-70
2022/10/15 10:39:17;;;;;;;33.93;23.93;;;;;;;;;;5060976;28;20209;-72
2022/10/15 10:41:54;;;;;;;33.10;23.87;;;;;;;;;;5031887;28;20252;-71
2022/10/15 10:44:31;;;;;;;35.37;24.10;;;;;;;;;;5060873;28;20204;-72
2022/10/15 10:47:03;;;;;;;37.57;26.07;;;;;;;;;;5052562;28;21021;-71
2022/10/15 10:49:31;;;;;;;40.03;25.73;;;;;;;;;;5043828;28;20197;-71
2022/10/15 10:51:59;;;;;;;37.63;26.00;;;;;;;;;;5038834;28;20210;-72
2022/10/15 10:54:28;;;;;;;35.23;24.27;;;;;;;;;;5060589;28;20197;-69
2022/10/15 10:56:55;;;;;;;36.37;25.10;;;;;;;;;;5040985;28;20210;-68
2022/10/15 10:59:24;;;;;;;38.03;24.53;;;;;;;;;;5030373;28;20194;-68
2022/10/15 11:01:51;;;;;;;37.07;24.00;;;;;;;;;;5041239;28;20211;-70
2022/10/15 11:04:23;;;;;;;33.97;24.83;;;;;;;;;;5061007;28;20221;-70
2022/10/15 11:06:51;;;;;;;40.17;27.37;;;;;;;;;;5048018;28;20236;-71
2022/10/15 11:09:26;;;;;;;38.77;25.17;;;;;;;;;;5048921;28;20289;-68
2022/10/15 11:12:18;;;;;;;35.67;24.47;;;;;;;;;;5046692;28;20194;-70
2022/10/15 11:15:03;;;;;;;37.50;25.03;;;;;;;;;;5030620;28;20202;-74
2022/10/15 11:17:44;;;;;;;35.73;24.70;;;;;;;;;;5048117;28;20195;-74
2022/10/15 11:20:12;;;;;;;35.47;25.57;;;;;;;;;;5047877;28;20187;-74
2022/10/15 11:23:13;;;;;;;36.10;25.77;;;;;;;;;;5046500;28;20214;-72
2022/10/15 11:26:10;;;;;;;36.00;25.57;;;;;;;;;;5046996;28;20690;-73
2022/10/15 11:28:45;;;;;;;38.23;24.23;;;;;;;;;;5012525;28;20281;-73
2022/10/15 11:31:22;;;;;;;33.50;23.00;;;;;;;;;;5024228;28;20232;-69
2022/10/15 11:33:55;;;;;;;33.50;21.33;;;;;;;;;;5055036;28;20198;-71
2022/10/15 11:36:28;;;;;;;29.80;21.17;;;;;;;;;;5063410;28;20186;-71
2022/10/15 11:39:16;;;;;;;34.37;21.63;;;;;;;;;;5036613;28;20198;-70
2022/10/15 11:41:46;;;;;;;29.30;20.87;;;;;;;;;;5053522;28;20191;-68
2022/10/15 11:44:20;;;;;;;30.23;19.60;;;;;;;;;;5020400;28;20191;-67
2022/10/15 11:47:06;;;;;;;30.23;20.77;;;;;;;;;;5021042;28;20202;-68
2022/10/15 11:49:51;;;;;;;31.37;21.30;;;;;;;;;;5038161;28;20194;-68
2022/10/15 11:52:27;;;;;;;31.27;20.70;;;;;;;;;;5067978;28;20190;-69
2022/10/15 11:55:00;;;;;;;28.50;19.77;;;;;;;;;;5060245;28;20688;-70
2022/10/15 11:57:27;;;;;;;26.50;18.73;;;;;;;;;;5049392;28;20190;-71
2022/10/15 11:59:56;;;;;;;27.53;19.23;;;;;;;;;;5039300;28;20188;-71
2022/10/15 12:02:27;;;;;;;27.30;19.00;;;;;;;;;;5060797;28;20291;-70
2022/10/15 12:04:55;;;;;;;24.60;18.07;;;;;;;;;;5013074;28;20262;-71
2022/10/15 12:07:23;;;;;;;27.20;18.30;;;;;;;;;;5031280;28;20642;-76
2022/10/15 12:09:51;;;;;;;26.80;17.93;;;;;;;;;;5022715;28;20275;-74
2022/10/15 12:12:33;;;;;;;26.77;18.37;;;;;;;;;;5032645;28;20210;-74
2022/10/15 12:15:07;;;;;;;27.10;18.30;;;;;;;;;;5020739;28;20414;-74
2022/10/15 12:17:37;;;;;;;25.40;17.70;;;;;;;;;;5036813;28;20182;-69
2022/10/15 12:20:10;;;;;;;26.67;18.63;;;;;;;;;;5024032;28;20191;-72
2022/10/15 12:22:38;;;;;;;23.10;17.43;;;;;;;;;;5030593;28;20238;-71
2022/10/15 12:25:05;;;;;;;23.03;16.27;;;;;;;;;;5032651;28;20183;-71
2022/10/15 12:27:33;;;;;;;24.03;16.80;;;;;;;;;;5025700;28;20206;-71
2022/10/15 12:30:00;;;;;;;22.57;16.47;;;;;;;;;;5014824;28;20312;-71
2022/10/15 12:32:29;;;;;;;24.00;16.50;;;;;;;;;;5065179;28;20204;-76
2022/10/15 12:34:59;;;;;;;24.17;15.50;;;;;;;;;;5069331;28;20656;-74
2022/10/15 12:37:27;;;;;;;24.43;15.00;;;;;;;;;;5072781;28;20290;-72
2022/10/15 12:39:55;;;;;;;22.73;15.33;;;;;;;;;;5074722;28;20278;-73
2022/10/15 12:42:28;;;;;;;21.17;13.93;;;;;;;;;;5085956;28;20202;-70
2022/10/15 12:44:55;;;;;;;21.10;14.87;;;;;;;;;;5080431;28;20199;-70
2022/10/15 12:47:40;;;;;;;21.70;15.13;;;;;;;;;;5075880;28;20745;-69
2022/10/15 12:50:14;;;;;;;22.27;15.37;;;;;;;;;;5074067;28;20276;-76
2022/10/15 12:52:55;;;;;;;20.73;14.87;;;;;;;;;;5064094;28;20186;-75
2022/10/15 12:55:23;;;;;;;20.70;14.13;;;;;;;;;;5073200;28;20193;-73
2022/10/15 12:57:52;;;;;;;21.27;14.30;;;;;;;;;;5065417;28;20193;-72
2022/10/15 13:00:22;;;;;;;21.37;15.37;;;;;;;;;;5085248;28;20231;-74
2022/10/15 13:02:50;;;;;;;22.30;14.87;;;;;;;;;;5078887;28;20209;-76
2022/10/15 13:05:24;;;;;;;24.80;16.77;;;;;;;;;;5063138;28;20249;-76
2022/10/15 13:07:51;;;;;;;21.90;14.83;;;;;;;;;;5091385;28;20189;-79
2022/10/15 13:10:20;;;;;;;22.77;15.80;;;;;;;;;;5088963;28;20269;-73
2022/10/15 13:12:50;;;;;;;21.83;15.20;;;;;;;;;;5051371;28;20198;-73
2022/10/15 13:15:18;;;;;;;24.43;16.00;;;;;;;;;;5087567;28;20196;-71
2022/10/15 13:17:44;;;;;;;21.90;15.47;;;;;;;;;;5070520;28;20193;-75
2022/10/15 13:20:28;;;;;;;23.10;16.60;;;;;;;;;;5085458;28;20746;-76
2022/10/15 13:23:14;;;;;;;23.23;16.63;;;;;;;;;;5080735;28;20213;-79
2022/10/15 13:26:14;;;;;;;24.13;17.13;;;;;;;;;;5067150;28;20293;-71
2022/10/15 13:28:42;;;;;;;24.30;17.50;;;;;;;;;;5085500;28;20200;-69
2022/10/15 13:31:14;;;;;;;26.07;18.43;;;;;;;;;;5049336;28;20259;-72
2022/10/15 13:33:42;;;;;;;26.47;18.40;;;;;;;;;;5068768;28;20208;-69
2022/10/15 13:36:14;;;;;;;26.70;19.37;;;;;;;;;;5069468;28;20904;-69
2022/10/15 13:38:41;;;;;;;28.63;18.67;;;;;;;;;;5066101;28;20190;-70
2022/10/15 13:41:12;;;;;;;27.83;19.40;;;;;;;;;;5058980;28;20935;-69
2022/10/15 13:43:49;;;;;;;34.87;20.33;;;;;;;;;;5054201;28;20308;-70
2022/10/15 13:46:16;;;;;;;28.70;18.43;;;;;;;;;;5066095;28;20550;-69
2022/10/15 13:48:44;;;;;;;29.73;19.97;;;;;;;;;;5047868;28;20599;-69
2022/10/15 13:51:12;;;;;;;29.33;19.17;;;;;;;;;;5085929;28;20196;-70
2022/10/15 13:53:41;;;;;;;33.27;19.77;;;;;;;;;;5070935;28;20226;-70
2022/10/15 13:56:25;;;;;;;31.50;20.70;;;;;;;;;;5080211;28;20201;-71
2022/10/15 13:58:52;;;;;;;25.50;18.43;;;;;;;;;;5075369;28;20190;-70
2022/10/15 14:01:20;;;;;;;26.10;17.97;;;;;;;;;;5068531;28;20653;-71
2022/10/15 14:04:00;;;;;;;22.90;16.87;;;;;;;;;;5066880;28;20213;-71
2022/10/15 14:06:34;;;;;;;25.40;18.07;;;;;;;;;;5034770;28;20217;-71
2022/10/15 14:09:02;;;;;;;27.07;17.50;;;;;;;;;;5067566;28;20182;-70
2022/10/15 14:11:30;;;;;;;26.07;18.50;;;;;;;;;;5080099;28;20178;-71
2022/10/15 14:14:01;;;;;;;26.20;18.27;;;;;;;;;;5070324;28;20216;-71
2022/10/15 14:16:29;;;;;;;28.70;18.97;;;;;;;;;;5069129;28;20260;-72
2022/10/15 14:19:03;;;;;;;27.87;18.90;;;;;;;;;;5064637;28;20592;-71
2022/10/15 14:21:31;;;;;;;27.37;19.13;;;;;;;;;;5069556;28;20194;-72
2022/10/15 14:24:16;;;;;;;28.63;20.13;;;;;;;;;;5036420;28;20843;-72
2022/10/15 14:26:46;;;;;;;30.63;21.00;;;;;;;;;;5070564;28;20255;-74
2022/10/15 14:29:24;;;;;;;30.37;20.50;;;;;;;;;;5033513;28;20201;-73
2022/10/15 14:31:54;;;;;;;30.73;20.10;;;;;;;;;;5059276;28;20262;-76
2022/10/15 14:34:28;;;;;;;29.33;20.37;;;;;;;;;;5055252;28;20276;-73
2022/10/15 14:36:55;;;;;;;35.80;23.17;;;;;;;;;;5054315;28;20225;-78